createdAt,value
2017-11-16T00:00:41.650Z,8.90
2017-11-16T00:03:09.332Z,8.80
2017-11-16T00:05:35.684Z,8.80
2017-11-16T00:08:01.886Z,8.80
2017-11-16T00:10:28.121Z,8.80
2017-11-16T00:12:54.333Z,8.70
2017-11-16T00:15:21.457Z,8.70
2017-11-16T00:17:47.674Z,8.70
2017-11-16T00:20:13.973Z,8.70
2017-11-16T00:22:40.194Z,8.70
2017-11-16T00:25:06.413Z,8.70
2017-11-16T00:27:32.630Z,8.80
2017-11-16T00:29:59.574Z,8.80
2017-11-16T00:32:26.539Z,8.80
2017-11-16T00:34:52.766Z,8.80
2017-11-16T00:37:18.995Z,8.80
2017-11-16T00:39:45.337Z,8.80
2017-11-16T00:42:11.550Z,8.90
2017-11-16T00:44:37.761Z,9.00
2017-11-16T00:47:04.740Z,9.00
2017-11-16T00:49:31.090Z,9.00
2017-11-16T00:51:57.303Z,9.00
2017-11-16T00:54:23.506Z,9.10
2017-11-16T00:56:49.747Z,9.10
2017-11-16T00:59:15.935Z,9.00
2017-11-16T01:01:42.906Z,8.80
2017-11-16T01:04:09.117Z,8.80
2017-11-16T01:06:36.079Z,8.90
2017-11-16T01:09:02.305Z,8.80
2017-11-16T01:11:28.533Z,8.90
2017-11-16T01:13:54.786Z,9.00
2017-11-16T01:16:21.000Z,9.10
2017-11-16T01:18:47.187Z,9.20
2017-11-16T01:21:13.626Z,9.20
2017-11-16T01:23:39.818Z,9.30
2017-11-16T01:26:06.186Z,9.30
2017-11-16T01:28:33.143Z,9.30
2017-11-16T01:31:00.122Z,9.30
2017-11-16T01:33:26.346Z,9.30
2017-11-16T01:35:52.767Z,9.30
2017-11-16T01:38:19.038Z,9.30
2017-11-16T01:40:45.285Z,9.40
2017-11-16T01:45:37.506Z,9.40
2017-11-16T01:48:03.719Z,9.30
2017-11-16T01:50:29.962Z,9.20
2017-11-16T01:52:56.157Z,9.00
2017-11-16T01:55:22.426Z,8.90
2017-11-16T01:57:48.612Z,8.90
2017-11-16T02:00:14.845Z,8.90
2017-11-16T02:02:41.067Z,9.00
2017-11-16T02:05:07.300Z,8.90
2017-11-16T02:07:33.521Z,8.80
2017-11-16T02:09:59.823Z,8.80
2017-11-16T02:12:26.054Z,8.90
2017-11-16T02:14:52.368Z,9.00
2017-11-16T02:17:18.746Z,9.00
2017-11-16T02:19:44.974Z,9.10
2017-11-16T02:22:11.242Z,9.10
2017-11-16T02:24:37.478Z,9.10
2017-11-16T02:27:03.713Z,9.00
2017-11-16T02:29:29.930Z,9.00
2017-11-16T02:31:56.296Z,9.00
2017-11-16T02:34:23.254Z,9.00
2017-11-16T02:36:50.230Z,9.00
2017-11-16T02:39:16.479Z,9.00
2017-11-16T02:41:42.726Z,9.00
2017-11-16T02:44:09.043Z,9.00
2017-11-16T02:46:36.059Z,9.20
2017-11-16T02:49:02.311Z,9.20
2017-11-16T02:51:28.579Z,9.10
2017-11-16T02:53:54.802Z,9.00
2017-11-16T02:56:21.150Z,8.90
2017-11-16T02:58:48.100Z,9.00
2017-11-16T03:01:14.350Z,9.00
2017-11-16T03:03:40.566Z,9.10
2017-11-16T03:06:06.985Z,9.20
2017-11-16T03:08:33.963Z,8.90
2017-11-16T03:11:00.205Z,8.90
2017-11-16T03:13:26.410Z,8.90
2017-11-16T03:15:52.719Z,8.80
2017-11-16T03:18:19.681Z,8.70
2017-11-16T03:20:45.919Z,8.60
2017-11-16T03:23:12.163Z,8.50
2017-11-16T03:25:38.438Z,8.40
2017-11-16T03:28:05.444Z,8.30
2017-11-16T03:30:31.664Z,8.30
2017-11-16T03:32:57.863Z,8.40
2017-11-16T03:35:24.153Z,8.50
2017-11-16T03:37:50.374Z,8.50
2017-11-16T03:40:16.775Z,8.60
2017-11-16T03:42:42.986Z,8.50
2017-11-16T03:45:09.254Z,8.40
2017-11-16T03:47:35.530Z,8.20
2017-11-16T03:50:02.504Z,8.10
2017-11-16T03:52:28.722Z,8.10
2017-11-16T03:54:54.937Z,8.10
2017-11-16T03:57:21.130Z,8.20
2017-11-16T03:59:47.402Z,8.20
2017-11-16T04:02:13.613Z,8.30
2017-11-16T04:04:39.835Z,8.40
2017-11-16T04:07:06.761Z,8.10
2017-11-16T04:09:32.982Z,8.10
2017-11-16T04:11:59.189Z,8.10
2017-11-16T04:14:25.610Z,8.20
2017-11-16T04:16:51.830Z,8.20
2017-11-16T04:19:18.057Z,8.20
2017-11-16T04:21:44.307Z,8.20
2017-11-16T04:24:10.551Z,8.20
2017-11-16T04:26:36.766Z,8.20
2017-11-16T04:29:02.986Z,8.30
2017-11-16T04:31:29.209Z,8.20
2017-11-16T04:33:55.439Z,8.20
2017-11-16T04:36:21.645Z,8.30
2017-11-16T04:38:47.866Z,8.30
2017-11-16T04:41:14.092Z,8.20
2017-11-16T04:43:41.041Z,8.20
2017-11-16T04:46:07.342Z,8.20
2017-11-16T04:48:34.315Z,8.30
2017-11-16T04:51:00.549Z,8.30
2017-11-16T04:53:26.750Z,8.30
2017-11-16T04:55:53.717Z,8.40
2017-11-16T04:58:19.993Z,8.40
2017-11-16T05:00:46.250Z,8.40
2017-11-16T05:03:13.218Z,8.50
2017-11-16T05:05:39.446Z,8.50
2017-11-16T05:08:05.666Z,8.50
2017-11-16T05:10:32.648Z,8.60
2017-11-16T05:12:58.857Z,8.60
2017-11-16T05:15:25.078Z,8.50
2017-11-16T05:17:51.267Z,8.50
2017-11-16T05:20:17.507Z,8.60
2017-11-16T05:22:43.726Z,8.50
2017-11-16T05:25:09.964Z,8.50
2017-11-16T05:27:36.165Z,8.40
2017-11-16T05:30:02.410Z,8.40
2017-11-16T05:32:28.630Z,8.40
2017-11-16T05:34:54.894Z,8.30
2017-11-16T05:37:21.847Z,8.20
2017-11-16T05:39:48.174Z,8.20
2017-11-16T05:42:14.453Z,8.20
2017-11-16T05:44:42.826Z,8.30
2017-11-16T05:47:09.834Z,8.30
2017-11-16T05:49:36.088Z,8.30
2017-11-16T05:52:02.322Z,8.40
2017-11-16T05:54:28.546Z,8.30
2017-11-16T05:56:54.742Z,8.30
2017-11-16T05:59:21.089Z,8.30
2017-11-16T06:01:47.421Z,8.30
2017-11-16T06:04:13.670Z,8.20
2017-11-16T06:06:39.886Z,8.20
2017-11-16T06:09:06.134Z,8.20
2017-11-16T06:11:32.326Z,8.20
2017-11-16T06:13:58.551Z,8.00
2017-11-16T06:16:24.803Z,8.00
2017-11-16T06:18:51.149Z,7.90
2017-11-16T06:21:17.375Z,7.90
2017-11-16T06:23:43.558Z,8.00
2017-11-16T06:26:09.807Z,8.10
2017-11-16T06:28:36.015Z,8.00
2017-11-16T06:31:02.965Z,8.00
2017-11-16T06:33:29.163Z,8.00
2017-11-16T06:35:55.377Z,8.10
2017-11-16T06:38:21.577Z,8.00
2017-11-16T06:40:47.814Z,8.00
2017-11-16T06:43:14.749Z,7.90
2017-11-16T06:45:40.966Z,7.90
2017-11-16T06:48:07.207Z,7.90
2017-11-16T06:50:33.437Z,7.70
2017-11-16T06:52:59.634Z,7.70
2017-11-16T06:55:25.972Z,7.70
2017-11-16T06:57:53.081Z,7.80
2017-11-16T07:00:19.321Z,7.70
2017-11-16T07:02:46.254Z,7.80
2017-11-16T07:05:12.502Z,7.70
2017-11-16T07:07:39.446Z,7.80
2017-11-16T07:10:06.479Z,7.80
2017-11-16T07:12:32.670Z,7.80
2017-11-16T07:14:58.899Z,7.80
2017-11-16T07:17:25.859Z,7.80
2017-11-16T07:19:52.092Z,7.80
2017-11-16T07:22:18.338Z,7.80
2017-11-16T07:24:45.050Z,7.80
2017-11-16T07:27:11.241Z,7.80
2017-11-16T07:29:37.465Z,7.90
2017-11-16T07:32:03.671Z,7.90
2017-11-16T07:34:30.690Z,7.90
2017-11-16T07:36:56.959Z,7.90
2017-11-16T07:39:23.242Z,7.90
2017-11-16T07:41:49.474Z,7.90
2017-11-16T07:44:15.691Z,7.90
2017-11-16T07:46:41.904Z,8.00
2017-11-16T07:49:08.175Z,7.90
2017-11-16T07:51:34.402Z,7.80
2017-11-16T07:54:00.638Z,7.80
2017-11-16T07:56:27.590Z,7.80
2017-11-16T07:58:54.599Z,7.80
2017-11-16T08:01:21.547Z,7.70
2017-11-16T08:03:47.770Z,7.70
2017-11-16T08:06:14.029Z,7.80
2017-11-16T08:08:40.253Z,7.80
2017-11-16T08:11:06.454Z,7.90
2017-11-16T08:13:32.697Z,7.90
2017-11-16T08:15:58.894Z,7.90
2017-11-16T08:18:25.101Z,8.10
2017-11-16T08:20:51.298Z,8.10
2017-11-16T08:23:17.509Z,8.10
2017-11-16T08:25:43.697Z,8.00
2017-11-16T08:28:09.906Z,8.00
2017-11-16T08:30:36.103Z,8.10
2017-11-16T08:33:02.315Z,8.00
2017-11-16T08:35:28.518Z,8.00
2017-11-16T08:37:54.859Z,8.00
2017-11-16T08:40:21.100Z,8.00
2017-11-16T08:42:47.329Z,8.00
2017-11-16T08:45:13.646Z,8.00
2017-11-16T08:47:40.020Z,8.10
2017-11-16T08:50:06.324Z,8.10
2017-11-16T08:52:32.595Z,8.10
2017-11-16T08:54:58.806Z,8.20
2017-11-16T08:57:25.810Z,8.20
2017-11-16T08:59:52.005Z,8.10
2017-11-16T09:02:18.273Z,8.20
2017-11-16T09:04:44.501Z,8.40
2017-11-16T09:07:10.761Z,8.40
2017-11-16T09:09:36.993Z,8.40
2017-11-16T09:12:03.936Z,8.60
2017-11-16T09:14:30.941Z,8.50
2017-11-16T09:16:57.160Z,8.50
2017-11-16T09:19:23.385Z,8.50
2017-11-16T09:21:49.642Z,8.50
2017-11-16T09:24:15.889Z,8.60
2017-11-16T09:26:42.847Z,8.50
2017-11-16T09:29:09.827Z,8.50
2017-11-16T09:31:36.013Z,8.40
2017-11-16T09:34:02.249Z,8.40
2017-11-16T09:36:29.193Z,8.30
2017-11-16T09:38:56.173Z,8.40
2017-11-16T09:41:22.434Z,8.40
2017-11-16T09:43:48.665Z,8.40
2017-11-16T09:46:14.863Z,8.40
2017-11-16T09:48:41.096Z,8.40
2017-11-16T09:51:07.301Z,8.30
2017-11-16T09:53:33.519Z,8.30
2017-11-16T09:55:59.730Z,8.40
2017-11-16T09:58:26.729Z,8.60
2017-11-16T10:00:52.916Z,8.60
2017-11-16T10:03:28.422Z,8.70
2017-11-16T10:05:57.376Z,8.70
2017-11-16T10:08:24.295Z,8.70
2017-11-16T10:10:50.815Z,8.70
2017-11-16T10:13:17.779Z,8.50
2017-11-16T10:15:44.718Z,8.50
2017-11-16T10:18:11.702Z,8.40
2017-11-16T10:20:37.902Z,8.40
2017-11-16T10:23:04.854Z,8.50
2017-11-16T10:25:31.047Z,8.50
2017-11-16T10:27:57.258Z,8.50
2017-11-16T10:30:24.195Z,8.50
2017-11-16T10:32:50.477Z,8.40
2017-11-16T10:35:17.410Z,8.40
2017-11-16T10:37:44.379Z,8.50
2017-11-16T10:40:10.594Z,8.50
2017-11-16T10:42:37.547Z,8.50
2017-11-16T10:45:03.750Z,8.50
2017-11-16T10:47:30.733Z,8.70
2017-11-16T10:49:56.926Z,8.70
2017-11-16T10:52:23.890Z,8.90
2017-11-16T10:54:50.199Z,8.90
2017-11-16T10:57:17.144Z,8.90
2017-11-16T10:59:44.119Z,9.00
2017-11-16T11:02:10.306Z,9.00
2017-11-16T11:04:36.542Z,9.10
2017-11-16T11:07:02.850Z,9.10
2017-11-16T11:09:29.067Z,9.00
2017-11-16T11:11:55.298Z,8.90
2017-11-16T11:14:21.542Z,8.90
2017-11-16T11:16:47.726Z,8.90
2017-11-16T11:19:13.966Z,9.10
2017-11-16T11:21:40.146Z,9.10
2017-11-16T11:24:07.102Z,9.30
2017-11-16T11:26:33.382Z,9.30
2017-11-16T11:28:59.603Z,9.60
2017-11-16T11:31:25.826Z,9.50
2017-11-16T11:33:52.607Z,9.40
2017-11-16T11:36:18.781Z,9.30
2017-11-16T11:38:45.002Z,9.30
2017-11-16T11:41:11.189Z,9.30
2017-11-16T11:43:37.522Z,9.30
2017-11-16T11:46:04.457Z,9.40
2017-11-16T11:48:30.670Z,9.40
2017-11-16T11:50:57.606Z,9.40
2017-11-16T11:53:23.792Z,9.40
2017-11-16T11:55:49.991Z,9.60
2017-11-16T11:58:16.211Z,9.80
2017-11-16T12:00:42.414Z,9.70
2017-11-16T12:03:08.683Z,9.70
2017-11-16T12:05:34.887Z,9.60
2017-11-16T12:08:01.130Z,9.60
2017-11-16T12:10:27.394Z,9.60
2017-11-16T12:12:53.626Z,9.70
2017-11-16T12:15:19.831Z,9.80
2017-11-16T12:17:46.858Z,9.80
2017-11-16T12:20:13.062Z,9.70
2017-11-16T12:22:39.283Z,9.60
2017-11-16T12:25:05.498Z,9.50
2017-11-16T12:27:31.731Z,9.40
2017-11-16T12:29:57.978Z,9.40
2017-11-16T12:32:24.222Z,9.50
2017-11-16T12:34:50.457Z,9.50
2017-11-16T12:37:16.698Z,9.50
2017-11-16T12:39:43.005Z,9.60
2017-11-16T12:42:09.276Z,9.40
2017-11-16T12:44:35.485Z,9.30
2017-11-16T12:47:01.714Z,9.30
2017-11-16T12:49:27.921Z,9.40
2017-11-16T12:52:01.126Z,9.40
2017-11-16T12:54:27.328Z,9.40
2017-11-16T12:56:53.567Z,9.40
2017-11-16T12:59:19.784Z,9.30
2017-11-16T13:01:46.047Z,9.40
2017-11-16T13:04:14.274Z,9.50
2017-11-16T13:06:40.526Z,9.60
2017-11-16T13:09:06.738Z,9.70
2017-11-16T13:11:32.958Z,9.60
2017-11-16T13:13:59.179Z,9.50
2017-11-16T13:16:25.366Z,9.40
2017-11-16T13:18:52.375Z,9.40
2017-11-16T13:21:18.610Z,9.40
2017-11-16T13:23:45.082Z,9.30
2017-11-16T13:26:12.086Z,9.30
2017-11-16T13:28:38.332Z,9.30
2017-11-16T13:31:04.545Z,9.40
2017-11-16T13:33:30.783Z,9.60
2017-11-16T13:35:56.979Z,9.70
2017-11-16T13:38:23.204Z,9.80
2017-11-16T13:40:49.432Z,9.70
2017-11-16T13:43:15.650Z,9.80
2017-11-16T13:45:41.837Z,10.00
2017-11-16T13:48:08.854Z,10.20
2017-11-16T13:50:35.047Z,10.20
2017-11-16T13:53:01.264Z,10.30
2017-11-16T13:55:28.186Z,10.40
2017-11-16T13:57:54.395Z,10.40
2017-11-16T14:00:20.596Z,10.10
2017-11-16T14:02:46.804Z,10.00
2017-11-16T14:05:13.000Z,10.10
2017-11-16T14:07:39.955Z,10.40
2017-11-16T14:10:06.894Z,10.40
2017-11-16T14:12:33.843Z,10.60
2017-11-16T14:15:00.770Z,10.60
2017-11-16T14:17:27.029Z,10.60
2017-11-16T14:19:53.234Z,10.60
2017-11-16T14:22:19.465Z,10.60
2017-11-16T14:24:46.420Z,10.40
2017-11-16T14:27:13.390Z,10.10
2017-11-16T14:29:39.651Z,10.10
2017-11-16T14:32:05.854Z,9.80
2017-11-16T14:34:32.049Z,9.70
2017-11-16T14:36:59.018Z,9.30
2017-11-16T14:39:25.246Z,9.30
2017-11-16T14:41:51.483Z,9.30
2017-11-16T14:44:17.686Z,9.20
2017-11-16T14:46:44.650Z,9.10
2017-11-16T14:49:10.842Z,9.00
2017-11-16T14:51:37.794Z,8.90
2017-11-16T14:54:04.745Z,8.70
2017-11-16T14:56:30.948Z,8.70
2017-11-16T14:58:57.139Z,8.60
2017-11-16T15:01:23.354Z,8.60
2017-11-16T15:03:49.559Z,8.50
2017-11-16T15:06:15.782Z,8.30
2017-11-16T15:08:42.797Z,8.30
2017-11-16T15:11:09.770Z,8.30
2017-11-16T15:13:36.702Z,8.30
2017-11-16T15:16:02.949Z,8.30
2017-11-16T15:18:29.885Z,8.40
2017-11-16T15:20:56.863Z,8.30
2017-11-16T15:23:23.106Z,8.30
2017-11-16T15:25:49.306Z,8.30
2017-11-16T15:28:15.501Z,8.30
2017-11-16T15:30:41.751Z,8.10
2017-11-16T15:33:10.201Z,8.20
2017-11-16T15:35:36.487Z,8.20
2017-11-16T15:38:02.745Z,8.30
2017-11-16T15:40:28.962Z,8.20
2017-11-16T15:42:55.167Z,8.30
2017-11-16T15:45:22.026Z,8.30
2017-11-16T15:47:48.234Z,8.30
2017-11-16T15:50:14.447Z,8.30
2017-11-16T15:52:41.402Z,8.10
2017-11-16T15:55:07.606Z,8.00
2017-11-16T15:57:34.575Z,8.00
2017-11-16T16:00:00.803Z,8.00
2017-11-16T16:02:27.013Z,7.90
2017-11-16T16:04:53.946Z,7.70
2017-11-16T16:07:20.566Z,7.70
2017-11-16T16:09:46.770Z,7.70
2017-11-16T16:12:12.995Z,7.60
2017-11-16T16:14:39.174Z,7.50
2017-11-16T16:17:06.131Z,7.40
2017-11-16T16:19:33.079Z,7.30
2017-11-16T16:21:59.289Z,7.30
2017-11-16T16:24:26.262Z,7.10
2017-11-16T16:26:52.466Z,7.00
2017-11-16T16:29:19.390Z,7.10
2017-11-16T16:31:45.612Z,7.10
2017-11-16T16:34:11.816Z,7.10
2017-11-16T16:36:38.067Z,7.20
2017-11-16T16:39:04.290Z,7.30
2017-11-16T16:41:30.490Z,7.30
2017-11-16T16:43:56.670Z,7.40
2017-11-16T16:46:22.872Z,7.40
2017-11-16T16:48:49.091Z,7.40
2017-11-16T16:51:15.330Z,7.30
2017-11-16T16:53:42.269Z,7.30
2017-11-16T16:56:08.489Z,7.20
2017-11-16T16:58:34.684Z,7.20
2017-11-16T17:01:01.626Z,7.20
2017-11-16T17:03:27.845Z,7.10
2017-11-16T17:05:54.798Z,7.20
2017-11-16T17:08:20.999Z,7.20
2017-11-16T17:10:47.225Z,7.20
2017-11-16T17:13:13.443Z,7.10
2017-11-16T17:15:39.650Z,7.00
2017-11-16T17:18:05.839Z,7.00
2017-11-16T17:20:32.065Z,6.90
2017-11-16T17:22:58.271Z,7.00
2017-11-16T17:25:25.223Z,6.90
2017-11-16T17:27:59.137Z,6.90
2017-11-16T17:30:26.102Z,7.00
2017-11-16T17:32:52.293Z,6.90
2017-11-16T17:35:18.685Z,7.00
2017-11-16T17:37:45.034Z,7.00
2017-11-16T17:40:11.426Z,7.00
2017-11-16T17:42:37.648Z,7.00
2017-11-16T17:45:03.899Z,7.10
2017-11-16T17:47:30.151Z,7.00
2017-11-16T17:49:56.524Z,7.10
2017-11-16T17:52:22.831Z,7.10
2017-11-16T17:54:49.053Z,7.10
2017-11-16T17:57:15.254Z,7.10
2017-11-16T17:59:41.470Z,7.10
2017-11-16T18:02:07.682Z,7.20
2017-11-16T18:04:34.671Z,7.20
2017-11-16T18:07:00.887Z,7.20
2017-11-16T18:09:27.825Z,7.20
2017-11-16T18:11:54.067Z,7.20
2017-11-16T18:14:20.324Z,7.20
2017-11-16T18:16:46.830Z,7.20
2017-11-16T18:19:13.032Z,7.20
2017-11-16T18:21:39.255Z,7.20
2017-11-16T18:24:05.460Z,7.20
2017-11-16T18:26:32.425Z,7.20
2017-11-16T18:28:58.611Z,7.20
2017-11-16T18:31:24.827Z,7.20
2017-11-16T18:33:51.015Z,7.20
2017-11-16T18:36:17.229Z,7.20
2017-11-16T18:38:43.438Z,7.20
2017-11-16T18:41:10.390Z,7.30
2017-11-16T18:43:37.343Z,7.30
2017-11-16T18:46:03.596Z,7.30
2017-11-16T18:48:29.839Z,7.40
2017-11-16T18:50:56.110Z,7.40
2017-11-16T18:53:23.090Z,7.40
2017-11-16T18:55:49.389Z,7.40
2017-11-16T18:58:16.358Z,7.50
2017-11-16T19:00:42.674Z,7.40
2017-11-16T19:03:08.968Z,7.50
2017-11-16T19:05:35.256Z,7.50
2017-11-16T19:08:01.543Z,7.60
2017-11-16T19:10:28.640Z,7.50
2017-11-16T19:12:54.998Z,7.50
2017-11-16T19:15:22.127Z,7.50
2017-11-16T19:17:48.459Z,7.40
2017-11-16T19:20:14.741Z,7.40
2017-11-16T19:22:40.999Z,7.50
2017-11-16T19:25:08.482Z,7.50
2017-11-16T19:27:35.044Z,7.50
2017-11-16T19:30:02.446Z,7.50
2017-11-16T19:32:28.878Z,7.50
2017-11-16T19:34:55.375Z,7.50
2017-11-16T19:37:21.886Z,7.50
2017-11-16T19:39:49.104Z,7.70
2017-11-16T19:42:15.588Z,7.60
2017-11-16T19:44:42.081Z,7.60
2017-11-16T19:47:08.622Z,7.50
2017-11-16T19:49:35.093Z,7.60
2017-11-16T19:52:01.707Z,7.60
2017-11-16T19:54:29.120Z,7.60
2017-11-16T19:56:55.689Z,7.60
2017-11-16T19:59:22.933Z,7.60
2017-11-16T20:01:49.460Z,7.60
2017-11-16T20:04:15.963Z,7.50
2017-11-16T20:06:42.516Z,7.50
2017-11-16T20:09:09.038Z,7.50
2017-11-16T20:11:35.560Z,7.50
2017-11-16T20:14:02.079Z,7.60
2017-11-16T20:16:28.613Z,7.60
2017-11-16T20:18:55.112Z,7.60
2017-11-16T20:21:21.678Z,7.70
2017-11-16T20:23:48.923Z,7.70
2017-11-16T20:26:16.215Z,7.70
2017-11-16T20:28:42.654Z,7.70
2017-11-16T20:31:09.172Z,7.80
2017-11-16T20:33:35.658Z,7.70
2017-11-16T20:36:02.137Z,7.70
2017-11-16T20:41:52.872Z,7.60
2017-11-16T20:44:26.277Z,7.60
2017-11-16T20:46:54.549Z,7.60
2017-11-16T20:49:27.617Z,7.60
2017-11-16T20:51:54.888Z,7.50
2017-11-16T20:54:24.705Z,7.60
2017-11-16T20:56:51.710Z,7.60
2017-11-16T20:59:17.946Z,7.60
2017-11-16T21:01:44.219Z,7.60
2017-11-16T21:04:10.430Z,7.60
2017-11-16T21:06:37.499Z,7.60
2017-11-16T21:09:03.762Z,7.60
2017-11-16T21:11:30.730Z,7.60
2017-11-16T21:13:56.950Z,7.50
2017-11-16T21:16:23.174Z,7.60
2017-11-16T21:18:50.098Z,7.60
2017-11-16T21:21:16.306Z,7.60
2017-11-16T21:23:42.495Z,7.60
2017-11-16T21:26:09.490Z,7.60
2017-11-16T21:28:36.383Z,7.60
2017-11-16T21:31:02.620Z,7.70
2017-11-16T21:33:29.571Z,7.70
2017-11-16T21:35:56.607Z,7.80
2017-11-16T21:38:22.835Z,7.80
2017-11-16T21:40:49.058Z,7.80
2017-11-16T21:43:15.391Z,7.90
2017-11-16T21:45:41.826Z,7.80
2017-11-16T21:48:08.150Z,7.80
2017-11-16T21:50:34.370Z,7.80
2017-11-16T21:53:00.555Z,7.80
2017-11-16T21:55:26.796Z,7.70
2017-11-16T21:57:52.985Z,7.80
2017-11-16T22:00:19.958Z,7.80
2017-11-16T22:02:46.149Z,7.70
2017-11-16T22:05:12.458Z,7.80
2017-11-16T22:07:38.678Z,7.80
2017-11-16T22:10:04.890Z,7.80
2017-11-16T22:12:31.653Z,7.80
2017-11-16T22:14:57.858Z,7.80
2017-11-16T22:17:24.269Z,7.80
2017-11-16T22:19:50.484Z,7.90
2017-11-16T22:22:16.750Z,7.90
2017-11-16T22:24:42.981Z,7.90
2017-11-16T22:27:09.166Z,8.00
2017-11-16T22:29:36.121Z,8.00
2017-11-16T22:32:02.320Z,8.00
2017-11-16T22:34:29.282Z,8.10
2017-11-16T22:36:56.210Z,8.10
2017-11-16T22:39:22.466Z,8.10
2017-11-16T22:41:48.664Z,8.10
2017-11-16T22:44:14.963Z,8.20
2017-11-16T22:46:41.166Z,8.20
2017-11-16T22:49:07.426Z,8.20
2017-11-16T22:51:33.606Z,8.30
2017-11-16T22:53:59.828Z,8.30
2017-11-16T22:56:26.826Z,8.30
2017-11-16T22:58:53.893Z,8.30
2017-11-16T23:01:20.079Z,8.30
2017-11-16T23:03:46.298Z,8.30
2017-11-16T23:06:12.514Z,8.30
2017-11-16T23:08:38.715Z,8.40
2017-11-16T23:11:05.674Z,8.30
2017-11-16T23:13:32.598Z,8.40
2017-11-16T23:15:58.806Z,8.40
2017-11-16T23:18:25.765Z,8.40
2017-11-16T23:20:51.984Z,8.50
2017-11-16T23:23:18.170Z,8.40
2017-11-16T23:25:44.392Z,8.40
2017-11-16T23:28:10.580Z,8.40
2017-11-16T23:30:36.804Z,8.50
2017-11-16T23:33:03.017Z,8.50
2017-11-16T23:35:29.238Z,8.60
2017-11-16T23:37:55.501Z,8.50
2017-11-16T23:40:21.713Z,8.60
2017-11-16T23:42:47.917Z,8.60
2017-11-16T23:45:14.138Z,8.60
2017-11-16T23:47:40.330Z,8.50
2017-11-16T23:50:07.294Z,8.60
2017-11-16T23:52:33.726Z,8.60
2017-11-16T23:54:59.954Z,8.60
2017-11-16T23:57:26.169Z,8.60
2017-11-16T23:59:52.382Z,8.60
